sensor_id;sensor_type;location;lat;lon;timestamp;P1;durP1;ratioP1;P2;durP2;ratioP2
20792;SDS011;10556;-33.662;151.094;2022-07-23T00:00:49;2.70;;;2.43;;
20792;SDS011;10556;-33.662;151.094;2022-07-23T00:05:51;1.20;;;1.10;;
20792;SDS011;10556;-33.662;151.094;2022-07-23T00:10:57;8.63;;;6.20;;
20792;SDS011;10556;-33.662;151.094;2022-07-23T00:15:59;6.63;;;3.87;;
20792;SDS011;10556;-33.662;151.094;2022-07-23T00:21:02;6.87;;;3.27;;
20792;SDS011;10556;-33.662;151.094;2022-07-23T00:26:06;3.47;;;2.47;;
20792;SDS011;10556;-33.662;151.094;2022-07-23T00:31:09;2.77;;;1.73;;
20792;SDS011;10556;-33.662;151.094;2022-07-23T00:36:12;2.43;;;1.00;;
20792;SDS011;10556;-33.662;151.094;2022-07-23T00:41:16;2.33;;;0.60;;
20792;SDS011;10556;-33.662;151.094;2022-07-23T00:46:19;1.17;;;0.70;;
20792;SDS011;10556;-33.662;151.094;2022-07-23T00:51:22;1.03;;;0.53;;
20792;SDS011;10556;-33.662;151.094;2022-07-23T00:56:26;2.43;;;0.60;;
20792;SDS011;10556;-33.662;151.094;2022-07-23T01:01:30;3.07;;;0.50;;
20792;SDS011;10556;-33.662;151.094;2022-07-23T01:06:33;1.27;;;0.40;;
20792;SDS011;10556;-33.662;151.094;2022-07-23T01:11:38;2.40;;;0.40;;
20792;SDS011;10556;-33.662;151.094;2022-07-23T01:16:41;1.03;;;0.30;;
20792;SDS011;10556;-33.662;151.094;2022-07-23T01:21:45;0.67;;;0.20;;
20792;SDS011;10556;-33.662;151.094;2022-07-23T01:26:51;0.50;;;0.50;;
20792;SDS011;10556;-33.662;151.094;2022-07-23T01:31:54;0.97;;;0.47;;
20792;SDS011;10556;-33.662;151.094;2022-07-23T01:36:56;0.97;;;0.33;;
20792;SDS011;10556;-33.662;151.094;2022-07-23T01:42:01;0.30;;;0.20;;
20792;SDS011;10556;-33.662;151.094;2022-07-23T01:47:03;2.40;;;0.80;;
20792;SDS011;10556;-33.662;151.094;2022-07-23T01:52:06;0.70;;;0.40;;
20792;SDS011;10556;-33.662;151.094;2022-07-23T01:57:10;0.27;;;0.27;;
20792;SDS011;10556;-33.662;151.094;2022-07-23T02:02:13;0.57;;;0.10;;
20792;SDS011;10556;-33.662;151.094;2022-07-23T02:07:16;0.73;;;0.20;;
20792;SDS011;10556;-33.662;151.094;2022-07-23T02:12:20;0.60;;;0.20;;
20792;SDS011;10556;-33.662;151.094;2022-07-23T02:17:23;4.20;;;3.70;;
20792;SDS011;10556;-33.662;151.094;2022-07-23T02:22:25;1.00;;;0.90;;
20792;SDS011;10556;-33.662;151.094;2022-07-23T02:27:30;1.33;;;0.70;;
20792;SDS011;10556;-33.662;151.094;2022-07-23T02:32:33;1.00;;;0.50;;
20792;SDS011;10556;-33.662;151.094;2022-07-23T02:37:36;0.53;;;0.37;;
20792;SDS011;10556;-33.662;151.094;2022-07-23T02:42:41;0.53;;;0.30;;
20792;SDS011;10556;-33.662;151.094;2022-07-23T02:47:43;4.40;;;0.47;;
20792;SDS011;10556;-33.662;151.094;2022-07-23T02:52:46;1.67;;;0.37;;
20792;SDS011;10556;-33.662;151.094;2022-07-23T02:57:51;1.47;;;0.50;;
20792;SDS011;10556;-33.662;151.094;2022-07-23T03:02:53;2.00;;;0.40;;
20792;SDS011;10556;-33.662;151.094;2022-07-23T03:07:56;0.80;;;0.40;;
20792;SDS011;10556;-33.662;151.094;2022-07-23T03:13:00;2.53;;;1.97;;
20792;SDS011;10556;-33.662;151.094;2022-07-23T03:18:03;2.43;;;1.70;;
20792;SDS011;10556;-33.662;151.094;2022-07-23T03:23:05;2.33;;;0.70;;
20792;SDS011;10556;-33.662;151.094;2022-07-23T03:28:10;10.83;;;9.17;;
20792;SDS011;10556;-33.662;151.094;2022-07-23T03:33:12;1.60;;;1.33;;
20792;SDS011;10556;-33.662;151.094;2022-07-23T03:38:16;1.10;;;1.00;;
20792;SDS011;10556;-33.662;151.094;2022-07-23T03:43:20;1.43;;;0.60;;
20792;SDS011;10556;-33.662;151.094;2022-07-23T03:48:23;2.13;;;0.50;;
20792;SDS011;10556;-33.662;151.094;2022-07-23T03:53:25;1.13;;;0.50;;
20792;SDS011;10556;-33.662;151.094;2022-07-23T03:58:30;0.93;;;0.50;;
20792;SDS011;10556;-33.662;151.094;2022-07-23T04:03:32;1.50;;;0.40;;
20792;SDS011;10556;-33.662;151.094;2022-07-23T04:08:35;1.03;;;0.20;;
20792;SDS011;10556;-33.662;151.094;2022-07-23T04:13:39;1.90;;;0.30;;
20792;SDS011;10556;-33.662;151.094;2022-07-23T04:18:42;1.03;;;0.50;;
20792;SDS011;10556;-33.662;151.094;2022-07-23T04:23:44;2.33;;;1.00;;
20792;SDS011;10556;-33.662;151.094;2022-07-23T04:28:49;2.47;;;1.70;;
20792;SDS011;10556;-33.662;151.094;2022-07-23T04:33:51;1.40;;;0.60;;
20792;SDS011;10556;-33.662;151.094;2022-07-23T04:38:54;1.37;;;0.60;;
20792;SDS011;10556;-33.662;151.094;2022-07-23T04:43:58;1.10;;;0.50;;
20792;SDS011;10556;-33.662;151.094;2022-07-23T04:49:01;1.37;;;0.40;;
20792;SDS011;10556;-33.662;151.094;2022-07-23T04:54:03;1.43;;;0.30;;
20792;SDS011;10556;-33.662;151.094;2022-07-23T04:59:08;0.30;;;0.27;;
20792;SDS011;10556;-33.662;151.094;2022-07-23T05:04:10;0.57;;;0.27;;
20792;SDS011;10556;-33.662;151.094;2022-07-23T05:09:13;0.40;;;0.13;;
20792;SDS011;10556;-33.662;151.094;2022-07-23T05:14:17;0.10;;;0.10;;
20792;SDS011;10556;-33.662;151.094;2022-07-23T05:19:20;1.23;;;0.20;;
20792;SDS011;10556;-33.662;151.094;2022-07-23T05:24:23;0.30;;;0.10;;
20792;SDS011;10556;-33.662;151.094;2022-07-23T05:29:27;0.47;;;0.10;;
20792;SDS011;10556;-33.662;151.094;2022-07-23T05:34:30;1.43;;;0.27;;
20792;SDS011;10556;-33.662;151.094;2022-07-23T05:39:32;0.80;;;0.50;;
20792;SDS011;10556;-33.662;151.094;2022-07-23T05:44:37;0.70;;;0.50;;
20792;SDS011;10556;-33.662;151.094;2022-07-23T05:49:39;0.87;;;0.70;;
20792;SDS011;10556;-33.662;151.094;2022-07-23T05:54:42;1.80;;;1.50;;
20792;SDS011;10556;-33.662;151.094;2022-07-23T05:59:46;0.47;;;0.40;;
20792;SDS011;10556;-33.662;151.094;2022-07-23T06:04:49;1.40;;;1.03;;
20792;SDS011;10556;-33.662;151.094;2022-07-23T06:09:51;2.30;;;2.07;;
20792;SDS011;10556;-33.662;151.094;2022-07-23T06:14:56;2.77;;;1.50;;
20792;SDS011;10556;-33.662;151.094;2022-07-23T06:19:58;1.30;;;1.10;;
20792;SDS011;10556;-33.662;151.094;2022-07-23T06:25:01;2.50;;;2.30;;
20792;SDS011;10556;-33.662;151.094;2022-07-23T06:30:06;1.93;;;1.83;;
20792;SDS011;10556;-33.662;151.094;2022-07-23T06:35:10;2.00;;;1.73;;
20792;SDS011;10556;-33.662;151.094;2022-07-23T06:40:12;1.87;;;1.50;;
20792;SDS011;10556;-33.662;151.094;2022-07-23T06:45:17;6.53;;;3.30;;
20792;SDS011;10556;-33.662;151.094;2022-07-23T06:50:19;8.03;;;6.77;;
20792;SDS011;10556;-33.662;151.094;2022-07-23T06:55:22;6.70;;;6.00;;
20792;SDS011;10556;-33.662;151.094;2022-07-23T07:00:26;5.40;;;4.70;;
20792;SDS011;10556;-33.662;151.094;2022-07-23T07:05:29;3.87;;;3.47;;
20792;SDS011;10556;-33.662;151.094;2022-07-23T07:10:32;3.63;;;2.80;;
20792;SDS011;10556;-33.662;151.094;2022-07-23T07:15:36;3.60;;;3.20;;
20792;SDS011;10556;-33.662;151.094;2022-07-23T07:20:39;5.17;;;3.63;;
20792;SDS011;10556;-33.662;151.094;2022-07-23T07:25:41;4.77;;;3.47;;
20792;SDS011;10556;-33.662;151.094;2022-07-23T07:30:46;3.47;;;2.60;;
20792;SDS011;10556;-33.662;151.094;2022-07-23T07:35:49;5.73;;;3.60;;
20792;SDS011;10556;-33.662;151.094;2022-07-23T07:40:51;5.23;;;3.60;;
20792;SDS011;10556;-33.662;151.094;2022-07-23T07:45:56;5.17;;;3.90;;
20792;SDS011;10556;-33.662;151.094;2022-07-23T07:50:58;4.40;;;3.97;;
20792;SDS011;10556;-33.662;151.094;2022-07-23T07:56:01;5.17;;;4.63;;
20792;SDS011;10556;-33.662;151.094;2022-07-23T08:01:05;17.77;;;13.07;;
20792;SDS011;10556;-33.662;151.094;2022-07-23T08:06:08;24.33;;;16.47;;
20792;SDS011;10556;-33.662;151.094;2022-07-23T08:11:11;29.33;;;18.67;;
20792;SDS011;10556;-33.662;151.094;2022-07-23T08:16:15;33.43;;;22.43;;
20792;SDS011;10556;-33.662;151.094;2022-07-23T08:21:18;27.00;;;18.77;;
20792;SDS011;10556;-33.662;151.094;2022-07-23T08:26:21;20.83;;;14.87;;
20792;SDS011;10556;-33.662;151.094;2022-07-23T08:31:25;17.47;;;13.13;;
20792;SDS011;10556;-33.662;151.094;2022-07-23T08:36:28;11.03;;;9.37;;
20792;SDS011;10556;-33.662;151.094;2022-07-23T08:41:30;11.93;;;9.87;;
20792;SDS011;10556;-33.662;151.094;2022-07-23T08:46:36;13.37;;;10.23;;
20792;SDS011;10556;-33.662;151.094;2022-07-23T08:51:41;11.17;;;9.23;;
20792;SDS011;10556;-33.662;151.094;2022-07-23T08:56:44;11.93;;;10.20;;
20792;SDS011;10556;-33.662;151.094;2022-07-23T09:01:48;15.90;;;11.70;;
20792;SDS011;10556;-33.662;151.094;2022-07-23T09:06:51;16.73;;;11.77;;
20792;SDS011;10556;-33.662;151.094;2022-07-23T09:12:01;16.90;;;12.17;;
20792;SDS011;10556;-33.662;151.094;2022-07-23T09:17:13;10.23;;;8.70;;
20792;SDS011;10556;-33.662;151.094;2022-07-23T09:22:20;11.60;;;7.63;;
20792;SDS011;10556;-33.662;151.094;2022-07-23T09:27:24;8.93;;;6.50;;
20792;SDS011;10556;-33.662;151.094;2022-07-23T09:38:09;9.43;;;6.43;;
20792;SDS011;10556;-33.662;151.094;2022-07-23T09:43:12;11.23;;;8.83;;
20792;SDS011;10556;-33.662;151.094;2022-07-23T09:48:28;12.03;;;8.57;;
20792;SDS011;10556;-33.662;151.094;2022-07-23T09:53:30;9.63;;;7.43;;
20792;SDS011;10556;-33.662;151.094;2022-07-23T09:58:33;9.37;;;7.40;;
20792;SDS011;10556;-33.662;151.094;2022-07-23T10:03:42;10.67;;;7.40;;
20792;SDS011;10556;-33.662;151.094;2022-07-23T10:08:45;10.30;;;7.17;;
20792;SDS011;10556;-33.662;151.094;2022-07-23T10:13:52;12.13;;;7.17;;
20792;SDS011;10556;-33.662;151.094;2022-07-23T10:18:57;14.20;;;7.97;;
20792;SDS011;10556;-33.662;151.094;2022-07-23T10:24:04;9.10;;;6.30;;
20792;SDS011;10556;-33.662;151.094;2022-07-23T10:29:20;12.63;;;7.97;;
20792;SDS011;10556;-33.662;151.094;2022-07-23T10:34:39;10.50;;;6.53;;
20792;SDS011;10556;-33.662;151.094;2022-07-23T10:39:45;14.73;;;7.70;;
20792;SDS011;10556;-33.662;151.094;2022-07-23T10:44:48;33.20;;;8.40;;
20792;SDS011;10556;-33.662;151.094;2022-07-23T10:49:53;30.43;;;9.33;;
20792;SDS011;10556;-33.662;151.094;2022-07-23T11:00:49;8.80;;;5.73;;
20792;SDS011;10556;-33.662;151.094;2022-07-23T11:05:53;8.13;;;5.37;;
20792;SDS011;10556;-33.662;151.094;2022-07-23T11:11:07;10.33;;;5.57;;
20792;SDS011;10556;-33.662;151.094;2022-07-23T11:16:14;6.90;;;4.10;;
20792;SDS011;10556;-33.662;151.094;2022-07-23T11:26:58;11.57;;;6.43;;
20792;SDS011;10556;-33.662;151.094;2022-07-23T11:32:04;10.30;;;6.33;;
20792;SDS011;10556;-33.662;151.094;2022-07-23T11:37:10;11.27;;;8.30;;
20792;SDS011;10556;-33.662;151.094;2022-07-23T11:42:16;9.87;;;7.27;;
20792;SDS011;10556;-33.662;151.094;2022-07-23T11:47:21;10.07;;;7.10;;
20792;SDS011;10556;-33.662;151.094;2022-07-23T11:52:27;12.93;;;8.77;;
20792;SDS011;10556;-33.662;151.094;2022-07-23T11:57:30;13.03;;;9.63;;
20792;SDS011;10556;-33.662;151.094;2022-07-23T12:02:33;14.13;;;9.93;;
20792;SDS011;10556;-33.662;151.094;2022-07-23T12:07:38;11.53;;;8.10;;
20792;SDS011;10556;-33.662;151.094;2022-07-23T12:12:43;12.50;;;8.27;;
20792;SDS011;10556;-33.662;151.094;2022-07-23T12:17:48;14.70;;;9.23;;
20792;SDS011;10556;-33.662;151.094;2022-07-23T12:22:55;14.47;;;8.70;;
20792;SDS011;10556;-33.662;151.094;2022-07-23T12:28:00;13.70;;;8.63;;
20792;SDS011;10556;-33.662;151.094;2022-07-23T12:33:04;14.37;;;9.30;;
20792;SDS011;10556;-33.662;151.094;2022-07-23T12:38:10;14.23;;;9.53;;
20792;SDS011;10556;-33.662;151.094;2022-07-23T12:43:19;14.70;;;9.57;;
20792;SDS011;10556;-33.662;151.094;2022-07-23T12:48:23;14.67;;;9.43;;
20792;SDS011;10556;-33.662;151.094;2022-07-23T12:53:29;13.67;;;8.53;;
20792;SDS011;10556;-33.662;151.094;2022-07-23T12:58:45;13.07;;;8.33;;
20792;SDS011;10556;-33.662;151.094;2022-07-23T13:03:55;11.23;;;7.73;;
20792;SDS011;10556;-33.662;151.094;2022-07-23T13:09:04;11.63;;;7.87;;
20792;SDS011;10556;-33.662;151.094;2022-07-23T13:14:08;10.30;;;7.40;;
20792;SDS011;10556;-33.662;151.094;2022-07-23T13:19:10;13.67;;;8.43;;
20792;SDS011;10556;-33.662;151.094;2022-07-23T13:24:16;9.30;;;6.93;;
20792;SDS011;10556;-33.662;151.094;2022-07-23T13:29:18;10.40;;;7.67;;
20792;SDS011;10556;-33.662;151.094;2022-07-23T13:34:21;10.83;;;6.70;;
20792;SDS011;10556;-33.662;151.094;2022-07-23T13:39:25;10.20;;;6.77;;
20792;SDS011;10556;-33.662;151.094;2022-07-23T13:44:28;7.43;;;5.53;;
20792;SDS011;10556;-33.662;151.094;2022-07-23T13:49:31;6.93;;;5.10;;
20792;SDS011;10556;-33.662;151.094;2022-07-23T13:54:35;7.83;;;6.10;;
20792;SDS011;10556;-33.662;151.094;2022-07-23T13:59:38;6.87;;;5.40;;
20792;SDS011;10556;-33.662;151.094;2022-07-23T14:04:40;9.53;;;4.67;;
20792;SDS011;10556;-33.662;151.094;2022-07-23T14:09:45;5.83;;;4.33;;
20792;SDS011;10556;-33.662;151.094;2022-07-23T14:14:47;5.23;;;4.20;;
20792;SDS011;10556;-33.662;151.094;2022-07-23T14:19:50;5.83;;;3.47;;
20792;SDS011;10556;-33.662;151.094;2022-07-23T14:24:54;3.83;;;3.00;;
20792;SDS011;10556;-33.662;151.094;2022-07-23T14:29:57;4.13;;;2.93;;
20792;SDS011;10556;-33.662;151.094;2022-07-23T14:34:59;6.03;;;3.63;;
20792;SDS011;10556;-33.662;151.094;2022-07-23T14:40:05;5.97;;;3.00;;
20792;SDS011;10556;-33.662;151.094;2022-07-23T14:45:08;4.97;;;3.17;;
20792;SDS011;10556;-33.662;151.094;2022-07-23T14:50:11;3.60;;;2.97;;
20792;SDS011;10556;-33.662;151.094;2022-07-23T14:55:15;5.47;;;3.40;;
20792;SDS011;10556;-33.662;151.094;2022-07-23T15:00:18;5.63;;;3.33;;
20792;SDS011;10556;-33.662;151.094;2022-07-23T15:05:21;4.17;;;2.80;;
20792;SDS011;10556;-33.662;151.094;2022-07-23T15:10:25;3.20;;;2.77;;
20792;SDS011;10556;-33.662;151.094;2022-07-23T15:15:28;4.37;;;2.67;;
20792;SDS011;10556;-33.662;151.094;2022-07-23T15:20:32;3.47;;;2.30;;
20792;SDS011;10556;-33.662;151.094;2022-07-23T15:25:36;2.77;;;2.27;;
20792;SDS011;10556;-33.662;151.094;2022-07-23T15:30:39;3.80;;;2.67;;
20792;SDS011;10556;-33.662;151.094;2022-07-23T15:35:42;2.37;;;1.87;;
20792;SDS011;10556;-33.662;151.094;2022-07-23T15:40:46;3.87;;;1.70;;
20792;SDS011;10556;-33.662;151.094;2022-07-23T15:45:49;2.37;;;1.80;;
20792;SDS011;10556;-33.662;151.094;2022-07-23T15:50:52;2.60;;;1.67;;
20792;SDS011;10556;-33.662;151.094;2022-07-23T15:55:56;2.53;;;1.67;;
20792;SDS011;10556;-33.662;151.094;2022-07-23T16:00:59;3.20;;;2.03;;
20792;SDS011;10556;-33.662;151.094;2022-07-23T16:06:02;3.90;;;1.63;;
20792;SDS011;10556;-33.662;151.094;2022-07-23T16:11:07;1.87;;;1.53;;
20792;SDS011;10556;-33.662;151.094;2022-07-23T16:16:10;1.27;;;1.17;;
20792;SDS011;10556;-33.662;151.094;2022-07-23T16:21:13;1.67;;;1.10;;
20792;SDS011;10556;-33.662;151.094;2022-07-23T16:26:17;3.07;;;1.47;;
20792;SDS011;10556;-33.662;151.094;2022-07-23T16:31:20;1.83;;;1.30;;
20792;SDS011;10556;-33.662;151.094;2022-07-23T16:36:23;1.30;;;1.10;;
20792;SDS011;10556;-33.662;151.094;2022-07-23T16:41:27;2.00;;;1.07;;
20792;SDS011;10556;-33.662;151.094;2022-07-23T16:46:30;3.10;;;1.00;;
20792;SDS011;10556;-33.662;151.094;2022-07-23T16:51:33;1.13;;;0.80;;
20792;SDS011;10556;-33.662;151.094;2022-07-23T16:56:37;1.10;;;0.93;;
20792;SDS011;10556;-33.662;151.094;2022-07-23T17:01:40;1.87;;;1.20;;
20792;SDS011;10556;-33.662;151.094;2022-07-23T17:06:42;1.80;;;1.10;;
20792;SDS011;10556;-33.662;151.094;2022-07-23T17:11:47;2.87;;;1.30;;
20792;SDS011;10556;-33.662;151.094;2022-07-23T17:16:49;2.37;;;1.43;;
20792;SDS011;10556;-33.662;151.094;2022-07-23T17:21:52;2.93;;;1.73;;
20792;SDS011;10556;-33.662;151.094;2022-07-23T17:26:56;1.43;;;1.30;;
20792;SDS011;10556;-33.662;151.094;2022-07-23T17:32:00;2.17;;;1.60;;
20792;SDS011;10556;-33.662;151.094;2022-07-23T17:37:02;5.50;;;2.23;;
20792;SDS011;10556;-33.662;151.094;2022-07-23T17:42:07;2.70;;;1.10;;
20792;SDS011;10556;-33.662;151.094;2022-07-23T17:47:09;4.03;;;1.30;;
20792;SDS011;10556;-33.662;151.094;2022-07-23T17:52:14;3.13;;;1.23;;
20792;SDS011;10556;-33.662;151.094;2022-07-23T17:57:21;4.17;;;1.53;;
20792;SDS011;10556;-33.662;151.094;2022-07-23T18:02:23;3.03;;;1.90;;
20792;SDS011;10556;-33.662;151.094;2022-07-23T18:07:26;3.47;;;1.63;;
20792;SDS011;10556;-33.662;151.094;2022-07-23T18:12:40;2.07;;;1.33;;
20792;SDS011;10556;-33.662;151.094;2022-07-23T18:17:43;4.13;;;1.80;;
20792;SDS011;10556;-33.662;151.094;2022-07-23T18:22:46;2.33;;;2.07;;
20792;SDS011;10556;-33.662;151.094;2022-07-23T18:27:50;2.73;;;2.33;;
20792;SDS011;10556;-33.662;151.094;2022-07-23T18:32:53;2.70;;;1.93;;
20792;SDS011;10556;-33.662;151.094;2022-07-23T18:37:56;3.17;;;2.57;;
20792;SDS011;10556;-33.662;151.094;2022-07-23T18:43:00;2.50;;;1.70;;
20792;SDS011;10556;-33.662;151.094;2022-07-23T18:48:03;3.30;;;1.57;;
20792;SDS011;10556;-33.662;151.094;2022-07-23T18:53:06;2.20;;;1.50;;
20792;SDS011;10556;-33.662;151.094;2022-07-23T18:58:10;1.60;;;1.07;;
20792;SDS011;10556;-33.662;151.094;2022-07-23T19:03:13;2.03;;;1.20;;
20792;SDS011;10556;-33.662;151.094;2022-07-23T19:08:16;1.40;;;0.90;;
20792;SDS011;10556;-33.662;151.094;2022-07-23T19:13:20;1.17;;;0.90;;
20792;SDS011;10556;-33.662;151.094;2022-07-23T19:18:23;1.53;;;1.30;;
20792;SDS011;10556;-33.662;151.094;2022-07-23T19:23:25;1.27;;;1.10;;
20792;SDS011;10556;-33.662;151.094;2022-07-23T19:28:30;1.87;;;1.67;;
20792;SDS011;10556;-33.662;151.094;2022-07-23T19:33:33;3.27;;;1.43;;
20792;SDS011;10556;-33.662;151.094;2022-07-23T19:38:35;1.93;;;1.40;;
20792;SDS011;10556;-33.662;151.094;2022-07-23T19:43:40;2.17;;;1.57;;
20792;SDS011;10556;-33.662;151.094;2022-07-23T19:48:42;3.13;;;1.40;;
20792;SDS011;10556;-33.662;151.094;2022-07-23T19:53:45;2.13;;;1.87;;
20792;SDS011;10556;-33.662;151.094;2022-07-23T19:58:49;3.10;;;2.03;;
20792;SDS011;10556;-33.662;151.094;2022-07-23T20:03:52;2.07;;;1.53;;
20792;SDS011;10556;-33.662;151.094;2022-07-23T20:08:54;2.80;;;1.97;;
20792;SDS011;10556;-33.662;151.094;2022-07-23T20:13:59;2.97;;;2.10;;
20792;SDS011;10556;-33.662;151.094;2022-07-23T20:19:02;2.70;;;2.10;;
20792;SDS011;10556;-33.662;151.094;2022-07-23T20:24:04;2.73;;;1.77;;
20792;SDS011;10556;-33.662;151.094;2022-07-23T20:29:09;3.00;;;1.73;;
20792;SDS011;10556;-33.662;151.094;2022-07-23T20:34:12;2.50;;;2.23;;
20792;SDS011;10556;-33.662;151.094;2022-07-23T20:39:15;1.83;;;1.40;;
20792;SDS011;10556;-33.662;151.094;2022-07-23T20:44:19;2.13;;;1.67;;
20792;SDS011;10556;-33.662;151.094;2022-07-23T20:49:22;2.33;;;1.60;;
20792;SDS011;10556;-33.662;151.094;2022-07-23T20:54:24;2.37;;;2.00;;
20792;SDS011;10556;-33.662;151.094;2022-07-23T20:59:29;3.67;;;2.73;;
20792;SDS011;10556;-33.662;151.094;2022-07-23T21:04:32;3.47;;;2.90;;
20792;SDS011;10556;-33.662;151.094;2022-07-23T21:09:34;2.87;;;2.33;;
20792;SDS011;10556;-33.662;151.094;2022-07-23T21:14:38;3.53;;;2.57;;
20792;SDS011;10556;-33.662;151.094;2022-07-23T21:19:41;4.00;;;2.30;;
20792;SDS011;10556;-33.662;151.094;2022-07-23T21:24:44;4.77;;;1.97;;
20792;SDS011;10556;-33.662;151.094;2022-07-23T21:29:51;1.20;;;1.10;;
20792;SDS011;10556;-33.662;151.094;2022-07-23T21:34:54;4.00;;;1.10;;
20792;SDS011;10556;-33.662;151.094;2022-07-23T21:39:56;1.50;;;1.40;;
20792;SDS011;10556;-33.662;151.094;2022-07-23T21:45:01;3.77;;;1.10;;
20792;SDS011;10556;-33.662;151.094;2022-07-23T21:50:04;4.33;;;1.00;;
20792;SDS011;10556;-33.662;151.094;2022-07-23T21:55:07;12.90;;;0.80;;
20792;SDS011;10556;-33.662;151.094;2022-07-23T22:00:14;5.27;;;0.77;;
20792;SDS011;10556;-33.662;151.094;2022-07-23T22:05:19;2.60;;;1.60;;
20792;SDS011;10556;-33.662;151.094;2022-07-23T22:10:22;0.90;;;0.80;;
20792;SDS011;10556;-33.662;151.094;2022-07-23T22:15:26;1.87;;;0.90;;
20792;SDS011;10556;-33.662;151.094;2022-07-23T22:20:29;0.70;;;0.67;;
20792;SDS011;10556;-33.662;151.094;2022-07-23T22:25:31;1.63;;;1.03;;
20792;SDS011;10556;-33.662;151.094;2022-07-23T22:30:36;1.10;;;1.00;;
20792;SDS011;10556;-33.662;151.094;2022-07-23T22:35:38;2.80;;;1.00;;
20792;SDS011;10556;-33.662;151.094;2022-07-23T22:40:41;0.93;;;0.87;;
20792;SDS011;10556;-33.662;151.094;2022-07-23T22:45:46;1.60;;;1.10;;
20792;SDS011;10556;-33.662;151.094;2022-07-23T22:50:48;1.00;;;0.90;;
20792;SDS011;10556;-33.662;151.094;2022-07-23T22:55:51;1.97;;;1.13;;
20792;SDS011;10556;-33.662;151.094;2022-07-23T23:00:55;1.80;;;1.30;;
20792;SDS011;10556;-33.662;151.094;2022-07-23T23:05:58;1.53;;;1.13;;
20792;SDS011;10556;-33.662;151.094;2022-07-23T23:11:01;1.17;;;1.00;;
20792;SDS011;10556;-33.662;151.094;2022-07-23T23:16:05;2.83;;;1.83;;
20792;SDS011;10556;-33.662;151.094;2022-07-23T23:21:08;3.03;;;1.80;;
20792;SDS011;10556;-33.662;151.094;2022-07-23T23:26:10;2.83;;;2.00;;
20792;SDS011;10556;-33.662;151.094;2022-07-23T23:31:15;2.27;;;1.83;;
20792;SDS011;10556;-33.662;151.094;2022-07-23T23:36:18;2.33;;;1.60;;
20792;SDS011;10556;-33.662;151.094;2022-07-23T23:41:20;3.97;;;1.70;;
20792;SDS011;10556;-33.662;151.094;2022-07-23T23:46:25;1.57;;;1.47;;
20792;SDS011;10556;-33.662;151.094;2022-07-23T23:51:27;2.53;;;1.50;;
20792;SDS011;10556;-33.662;151.094;2022-07-23T23:56:30;3.23;;;2.30;;
